createdAt,value
2019-04-16T00:00:05.454Z,23.1
2019-04-16T00:00:56.330Z,23.1
2019-04-16T00:01:51.099Z,23
2019-04-16T00:02:35.444Z,22.9
2019-04-16T00:03:30.742Z,22.9
2019-04-16T00:04:15.745Z,22.9
2019-04-16T00:05:06.329Z,22.9
2019-04-16T00:06:02.001Z,22.9
2019-04-16T00:06:45.669Z,22.9
2019-04-16T00:07:35.987Z,22.9
2019-04-16T00:08:34.581Z,22.9
2019-04-16T00:09:15.521Z,22.9
2019-04-16T00:10:06.876Z,22.9
2019-04-16T00:10:55.989Z,22.9
2019-04-16T00:11:46.287Z,22.9
2019-04-16T00:12:35.236Z,22.9
2019-04-16T00:13:26.517Z,22.9
2019-04-16T00:14:15.081Z,22.9
2019-04-16T00:15:07.396Z,22.9
2019-04-16T00:15:57.103Z,22.9
2019-04-16T00:16:51.684Z,23
2019-04-16T00:17:37.280Z,23
2019-04-16T00:18:26.843Z,23
2019-04-16T00:19:16.588Z,23
2019-04-16T00:20:12.382Z,23.1
2019-04-16T00:20:57.113Z,23
2019-04-16T00:21:47.417Z,23.1
2019-04-16T00:22:37.098Z,23.1
2019-04-16T00:23:27.468Z,23.1
2019-04-16T00:24:23.360Z,23.1
2019-04-16T00:25:07.843Z,23.1
2019-04-16T00:26:02.372Z,23.1
2019-04-16T00:26:47.150Z,23.1
2019-04-16T00:27:38.022Z,23.1
2019-04-16T00:28:32.403Z,23.1
2019-04-16T00:29:17.853Z,23.1
2019-04-16T00:30:12.495Z,23.1
2019-04-16T00:30:57.267Z,23.1
2019-04-16T00:31:48.319Z,23.1
2019-04-16T00:32:44.619Z,23.1
2019-04-16T00:33:26.822Z,23.1
2019-04-16T00:34:20.407Z,23.1
2019-04-16T00:35:08.847Z,23.1
2019-04-16T00:35:58.640Z,23
2019-04-16T00:36:53.462Z,23
2019-04-16T00:37:38.769Z,23
2019-04-16T00:38:45.630Z,23
2019-04-16T00:39:18.110Z,23
2019-04-16T00:40:07.940Z,23
2019-04-16T00:41:04.685Z,22.9
2019-04-16T00:41:47.780Z,22.7
2019-04-16T00:42:38.884Z,22.6
2019-04-16T00:43:28.049Z,22.6
2019-04-16T00:44:18.745Z,22.5
2019-04-16T00:45:09.621Z,22.5
2019-04-16T00:45:57.991Z,22.5
2019-04-16T00:46:48.639Z,22.5
2019-04-16T00:47:38.116Z,22.6
2019-04-16T00:48:29.040Z,22.6
2019-04-16T00:49:18.941Z,22.8
2019-04-16T00:50:09.153Z,22.9
2019-04-16T00:50:59.192Z,23.1
2019-04-16T00:51:49.299Z,23.2
2019-04-16T00:52:44.348Z,23.3
2019-04-16T00:53:29.598Z,23.3
2019-04-16T00:54:19.139Z,23.2
2019-04-16T00:55:14.853Z,23.2
2019-04-16T00:55:58.956Z,23.1
2019-04-16T00:56:53.923Z,23.1
2019-04-16T00:57:39.411Z,23.1
2019-04-16T00:58:29.732Z,23.1
2019-04-16T00:59:21.278Z,23
2019-04-16T01:00:10.573Z,22.9
2019-04-16T01:01:00.028Z,22.9
2019-04-16T01:01:49.936Z,22.9
2019-04-16T01:02:40.313Z,22.9
2019-04-16T01:03:30.074Z,22.9
2019-04-16T01:04:20.193Z,22.9
2019-04-16T01:05:10.266Z,22.9
2019-04-16T01:06:00.503Z,22.9
2019-04-16T01:06:50.315Z,22.9
2019-04-16T01:07:39.275Z,22.9
2019-04-16T01:08:30.215Z,22.9
2019-04-16T01:09:20.550Z,22.9
2019-04-16T01:10:11.069Z,22.9
2019-04-16T01:11:01.527Z,22.9
2019-04-16T01:11:56.157Z,22.9
2019-04-16T01:12:40.815Z,22.9
2019-04-16T01:13:32.320Z,22.9
2019-04-16T01:14:20.916Z,22.9
2019-04-16T01:15:10.859Z,23
2019-04-16T01:16:07.283Z,23
2019-04-16T01:16:51.362Z,23
2019-04-16T01:17:43.479Z,23
2019-04-16T01:18:30.890Z,23
2019-04-16T01:19:20.990Z,23.1
2019-04-16T01:20:17.920Z,23.1
2019-04-16T01:21:01.404Z,23.1
2019-04-16T01:21:52.563Z,23.1
2019-04-16T01:22:42.490Z,23.1
2019-04-16T01:23:31.868Z,23.1
2019-04-16T01:24:27.534Z,23.1
2019-04-16T01:25:11.913Z,23.1
2019-04-16T01:26:04.189Z,23.1
2019-04-16T01:26:52.373Z,23.1
2019-04-16T01:27:41.653Z,23.1
2019-04-16T01:28:37.414Z,23.1
2019-04-16T01:29:21.416Z,23.1
2019-04-16T01:30:13.654Z,23.1
2019-04-16T01:31:06.877Z,23.1
2019-04-16T01:31:51.391Z,23.1
2019-04-16T01:32:45.943Z,23.1
2019-04-16T01:33:31.658Z,23
2019-04-16T01:34:25.861Z,23
2019-04-16T01:35:27.661Z,23
2019-04-16T01:36:02.418Z,23
2019-04-16T01:36:58.804Z,23
2019-04-16T01:37:41.783Z,23
2019-04-16T01:38:35.396Z,23
2019-04-16T01:39:25.656Z,22.8
2019-04-16T01:40:13.309Z,22.6
2019-04-16T01:41:02.653Z,22.6
2019-04-16T01:41:58.798Z,22.6
2019-04-16T01:42:42.989Z,22.5
2019-04-16T01:43:33.588Z,22.4
2019-04-16T01:44:22.520Z,22.4
2019-04-16T01:45:13.438Z,22.5
2019-04-16T01:46:09.341Z,22.6
2019-04-16T01:46:52.731Z,22.7
2019-04-16T01:47:44.387Z,22.8
2019-04-16T01:48:38.576Z,23
2019-04-16T01:49:23.173Z,23.1
2019-04-16T01:50:18.873Z,23.3
2019-04-16T01:51:03.789Z,23.3
2019-04-16T01:51:54.648Z,23.3
2019-04-16T01:52:43.761Z,23.3
2019-04-16T01:53:33.784Z,23.3
2019-04-16T01:54:29.040Z,23.2
2019-04-16T01:55:14.420Z,23.1
2019-04-16T01:56:05.723Z,23.1
2019-04-16T01:56:53.453Z,23.1
2019-04-16T01:57:44.340Z,23
2019-04-16T01:58:39.958Z,23
2019-04-16T01:59:24.456Z,22.9
2019-04-16T02:00:16.009Z,22.9
2019-04-16T02:01:04.446Z,22.9
2019-04-16T02:01:53.300Z,22.9
2019-04-16T02:02:50.194Z,22.9
2019-04-16T02:03:34.628Z,22.9
2019-04-16T02:04:27.061Z,22.9
2019-04-16T02:05:14.578Z,22.9
2019-04-16T02:06:05.157Z,22.9
2019-04-16T02:07:00.443Z,22.9
2019-04-16T02:07:44.695Z,22.9
2019-04-16T02:08:37.077Z,22.9
2019-04-16T02:09:36.764Z,22.9
2019-04-16T02:10:15.432Z,23
2019-04-16T02:11:11.197Z,22.9
2019-04-16T02:11:55.208Z,22.9
2019-04-16T02:12:50.838Z,23
2019-04-16T02:13:34.669Z,23
2019-04-16T02:14:28.615Z,23
2019-04-16T02:15:15.836Z,23
2019-04-16T02:16:06.042Z,23
2019-04-16T02:17:01.873Z,23
2019-04-16T02:17:44.981Z,23.1
2019-04-16T02:18:37.708Z,23.1
2019-04-16T02:19:25.461Z,23.1
2019-04-16T02:20:16.350Z,23
2019-04-16T02:21:12.355Z,23.1
2019-04-16T02:21:55.589Z,23.1
2019-04-16T02:22:51.461Z,23.1
2019-04-16T02:23:36.248Z,23.1
2019-04-16T02:24:25.779Z,23.1
2019-04-16T02:25:22.171Z,23.1
2019-04-16T02:26:06.462Z,23.1
2019-04-16T02:27:01.761Z,23.1
2019-04-16T02:27:45.790Z,23.1
2019-04-16T02:28:35.303Z,23.1
2019-04-16T02:29:31.210Z,23.1
2019-04-16T02:30:15.642Z,23.1
2019-04-16T02:31:17.240Z,23.1
2019-04-16T02:31:59.036Z,23.1
2019-04-16T02:32:46.908Z,23.1
2019-04-16T02:33:37.225Z,23.1
2019-04-16T02:34:27.236Z,23
2019-04-16T02:35:16.230Z,23
2019-04-16T02:36:07.625Z,23
2019-04-16T02:37:06.643Z,22.9
2019-04-16T02:37:47.279Z,22.7
2019-04-16T02:38:37.713Z,22.6
2019-04-16T02:39:55.838Z,22.6
2019-04-16T02:40:24.932Z,22.5
2019-04-16T02:41:07.826Z,22.5
2019-04-16T02:42:06.224Z,22.4
2019-04-16T02:42:47.558Z,22.5
2019-04-16T02:43:46.632Z,22.5
2019-04-16T02:44:27.366Z,22.6
2019-04-16T02:45:26.715Z,22.8
2019-04-16T02:46:08.565Z,22.9
2019-04-16T02:47:04.516Z,23
2019-04-16T02:47:49.855Z,23.2
2019-04-16T02:48:38.324Z,23.3
2019-04-16T02:49:31.622Z,23.3
2019-04-16T02:50:17.904Z,23.3
2019-04-16T02:51:15.818Z,23.2
2019-04-16T02:51:57.578Z,23.1
2019-04-16T02:52:57.972Z,23.1
2019-04-16T02:53:38.523Z,23.1
2019-04-16T02:54:37.457Z,23
2019-04-16T02:55:19.582Z,23
2019-04-16T02:56:08.960Z,22.9
2019-04-16T02:56:59.368Z,22.9
2019-04-16T02:57:48.937Z,22.9
2019-04-16T02:58:41.873Z,22.9
2019-04-16T02:59:28.642Z,22.9
2019-04-16T03:00:23.566Z,22.9
2019-04-16T03:01:08.484Z,22.9
2019-04-16T03:01:58.841Z,22.9
2019-04-16T03:02:54.562Z,22.9
2019-04-16T03:03:39.245Z,22.9
2019-04-16T03:07:09.972Z,22.9
2019-04-16T03:07:53.616Z,22.9
2019-04-16T03:08:42.991Z,22.9
2019-04-16T03:09:34.301Z,22.9
2019-04-16T03:10:24.361Z,22.9
2019-04-16T03:11:21.257Z,22.9
2019-04-16T03:12:03.739Z,22.9
2019-04-16T03:13:00.138Z,22.9
2019-04-16T03:13:44.891Z,22.9
2019-04-16T03:14:37.544Z,22.9
2019-04-16T03:15:23.366Z,22.9
2019-04-16T03:16:15.244Z,22.9
2019-04-16T03:17:12.886Z,22.9
2019-04-16T03:17:54.650Z,22.9
2019-04-16T03:18:51.035Z,22.9
2019-04-16T03:19:34.466Z,22.8
2019-04-16T03:20:31.323Z,22.9
2019-04-16T03:21:15.326Z,22.8
2019-04-16T03:22:10.966Z,22.8
2019-04-16T03:22:54.484Z,22.8
2019-04-16T03:23:45.060Z,22.8
2019-04-16T03:24:34.308Z,22.8
2019-04-16T03:25:24.715Z,22.8
2019-04-16T03:26:21.224Z,22.8
2019-04-16T03:27:10.075Z,22.8
2019-04-16T03:28:00.642Z,22.8
2019-04-16T03:28:45.687Z,22.8
2019-04-16T03:29:38.873Z,22.7
2019-04-16T03:30:25.398Z,22.7
2019-04-16T03:31:29.855Z,22.7
2019-04-16T03:32:14.925Z,22.7
2019-04-16T03:32:56.779Z,22.6
2019-04-16T03:33:57.058Z,22.6
2019-04-16T03:34:36.131Z,22.5
2019-04-16T03:35:32.084Z,22.4
2019-04-16T03:36:16.405Z,22.4
2019-04-16T03:37:09.542Z,22.4
2019-04-16T03:37:56.088Z,22.3
2019-04-16T03:38:49.343Z,22.3
2019-04-16T03:39:36.264Z,22.4
2019-04-16T03:40:32.844Z,22.4
2019-04-16T03:41:17.466Z,22.4
2019-04-16T03:42:07.179Z,22.6
2019-04-16T03:43:07.648Z,22.7
2019-04-16T03:43:46.213Z,22.9
2019-04-16T03:44:41.939Z,23
2019-04-16T03:45:27.266Z,23.1
2019-04-16T03:46:20.833Z,23.2
2019-04-16T03:47:06.936Z,23.1
2019-04-16T03:47:59.226Z,23.1
2019-04-16T03:48:46.846Z,23.1
2019-04-16T03:49:36.126Z,23
2019-04-16T03:50:32.731Z,22.9
2019-04-16T03:51:17.531Z,22.9
2019-04-16T03:52:14.348Z,22.9
2019-04-16T03:52:56.953Z,22.8
2019-04-16T03:53:53.738Z,22.8
2019-04-16T03:54:36.781Z,22.8
2019-04-16T03:55:33.214Z,22.7
2019-04-16T03:56:17.616Z,22.7
2019-04-16T03:57:10.495Z,22.7
2019-04-16T03:57:57.881Z,22.7
2019-04-16T03:58:47.605Z,22.6
2019-04-16T03:59:41.583Z,22.6
2019-04-16T04:00:27.542Z,22.6
2019-04-16T04:01:22.601Z,22.6
2019-04-16T04:02:08.513Z,22.6
2019-04-16T04:03:01.858Z,22.6
2019-04-16T04:03:47.429Z,22.6
2019-04-16T04:04:38.391Z,22.7
2019-04-16T04:05:28.100Z,22.7
2019-04-16T04:06:18.743Z,22.7
2019-04-16T04:07:15.386Z,22.7
2019-04-16T04:08:02.259Z,22.7
2019-04-16T04:08:57.820Z,22.7
2019-04-16T04:09:38.635Z,22.8
2019-04-16T04:10:44.117Z,22.8
2019-04-16T04:11:18.928Z,22.8
2019-04-16T04:12:15.240Z,22.8
2019-04-16T04:12:58.440Z,22.8
2019-04-16T04:13:53.983Z,22.8
2019-04-16T04:14:39.378Z,22.8
2019-04-16T04:15:34.275Z,22.8
2019-04-16T04:16:19.997Z,22.8
2019-04-16T04:17:15.100Z,22.8
2019-04-16T04:17:59.052Z,22.8
2019-04-16T04:18:50.960Z,22.7
2019-04-16T04:19:39.424Z,22.7
2019-04-16T04:20:28.605Z,22.7
2019-04-16T04:21:25.289Z,22.7
2019-04-16T04:22:09.184Z,22.7
2019-04-16T04:23:04.873Z,22.7
2019-04-16T04:23:49.209Z,22.6
2019-04-16T04:24:38.142Z,22.6
2019-04-16T04:25:29.852Z,22.6
2019-04-16T04:26:20.159Z,22.6
2019-04-16T04:27:20.929Z,22.6
2019-04-16T04:28:00.029Z,22.6
2019-04-16T04:28:56.066Z,22.6
2019-04-16T04:29:39.614Z,22.6
2019-04-16T04:30:36.656Z,22.5
2019-04-16T04:31:20.027Z,22.4
2019-04-16T04:32:11.727Z,22.4
2019-04-16T04:33:00.222Z,22.3
2019-04-16T04:33:50.339Z,22.3
2019-04-16T04:34:40.851Z,22.3
2019-04-16T04:35:30.937Z,22.3
2019-04-16T04:36:32.694Z,22.3
2019-04-16T04:37:10.746Z,22.4
2019-04-16T04:38:07.054Z,22.4
2019-04-16T04:38:50.551Z,22.6
2019-04-16T04:39:46.804Z,22.7
2019-04-16T04:40:52.366Z,22.8
2019-04-16T04:41:27.633Z,23
2019-04-16T04:42:12.128Z,23.1
2019-04-16T04:43:07.731Z,23.1
2019-04-16T04:43:51.879Z,23
2019-04-16T04:44:47.347Z,23
2019-04-16T04:45:31.293Z,22.9
2019-04-16T04:46:23.254Z,22.9
2019-04-16T04:47:11.958Z,22.8
2019-04-16T04:48:00.928Z,22.8
2019-04-16T04:49:00.670Z,22.8
2019-04-16T04:49:41.064Z,22.7
2019-04-16T04:50:37.135Z,22.7
2019-04-16T04:51:21.587Z,22.7
2019-04-16T04:52:18.038Z,22.7
2019-04-16T04:53:01.808Z,22.6
2019-04-16T04:53:57.818Z,22.6
2019-04-16T04:54:41.375Z,22.6
2019-04-16T04:55:33.003Z,22.6
2019-04-16T04:56:31.820Z,22.6
2019-04-16T04:57:11.887Z,22.6
2019-04-16T04:58:06.875Z,22.6
2019-04-16T04:58:51.966Z,22.6
2019-04-16T04:59:43.364Z,22.6
2019-04-16T05:00:31.871Z,22.6
2019-04-16T05:01:21.717Z,22.6
2019-04-16T05:02:18.302Z,22.7
2019-04-16T05:03:01.444Z,22.7
2019-04-16T05:03:55.565Z,22.7
2019-04-16T05:04:42.127Z,22.7
2019-04-16T05:05:33.390Z,22.7
2019-04-16T05:06:29.032Z,22.7
2019-04-16T05:07:11.690Z,22.8
2019-04-16T05:08:06.864Z,22.7
2019-04-16T05:08:52.532Z,22.8
2019-04-16T05:09:44.263Z,22.8
2019-04-16T05:10:32.001Z,22.8
2019-04-16T05:11:24.351Z,22.8
2019-04-16T05:12:22.737Z,22.8
2019-04-16T05:13:02.476Z,22.8
2019-04-16T05:13:58.430Z,22.8
2019-04-16T05:14:42.869Z,22.8
2019-04-16T05:15:36.794Z,22.7
2019-04-16T05:16:22.977Z,22.8
2019-04-16T05:17:14.780Z,22.8
2019-04-16T05:18:11.046Z,22.7
2019-04-16T05:18:52.038Z,22.7
2019-04-16T05:19:46.998Z,22.7
2019-04-16T05:20:37.568Z,22.7
2019-04-16T05:21:26.346Z,22.7
2019-04-16T05:22:13.744Z,22.6
2019-04-16T05:23:05.546Z,22.6
2019-04-16T05:24:00.121Z,22.6
2019-04-16T05:24:45.302Z,22.6
2019-04-16T05:25:39.891Z,22.6
2019-04-16T05:26:24.639Z,22.5
2019-04-16T05:27:16.938Z,22.4
2019-04-16T05:28:04.641Z,22.3
2019-04-16T05:28:54.431Z,22.3
2019-04-16T05:29:48.301Z,22.3
2019-04-16T05:30:33.993Z,22.3
2019-04-16T05:31:33.733Z,22.3
2019-04-16T05:32:14.748Z,22.3
2019-04-16T05:33:10.613Z,22.3
2019-04-16T05:33:55.367Z,22.4
2019-04-16T05:34:45.424Z,22.5
2019-04-16T05:35:34.091Z,22.6
2019-04-16T05:36:28.993Z,22.8
2019-04-16T05:37:22.073Z,22.9
2019-04-16T05:38:04.271Z,22.9
2019-04-16T05:39:03.547Z,22.8
2019-04-16T05:39:44.915Z,22.8
2019-04-16T05:40:42.329Z,22.8
2019-04-16T05:41:29.825Z,22.7
2019-04-16T05:42:15.204Z,22.7
2019-04-16T05:43:06.085Z,22.7
2019-04-16T05:43:54.687Z,22.6
2019-04-16T05:44:45.039Z,22.6
2019-04-16T05:45:41.297Z,22.6
2019-04-16T05:46:25.342Z,22.6
2019-04-16T05:47:22.415Z,22.6
2019-04-16T05:48:05.135Z,22.6
2019-04-16T05:49:01.126Z,22.6
2019-04-16T05:49:45.397Z,22.6
2019-04-16T05:50:36.552Z,22.6
2019-04-16T05:51:28.239Z,22.6
2019-04-16T05:52:16.631Z,22.6
2019-04-16T05:53:16.277Z,22.6
2019-04-16T05:53:55.430Z,22.6
2019-04-16T05:54:52.291Z,22.7
2019-04-16T05:55:36.072Z,22.7
2019-04-16T05:56:31.374Z,22.7
2019-04-16T05:57:15.879Z,22.8
2019-04-16T05:58:06.596Z,22.8
2019-04-16T05:58:55.787Z,22.8
2019-04-16T05:59:46.644Z,22.8
2019-04-16T06:00:42.883Z,22.8
2019-04-16T06:01:26.867Z,22.8
2019-04-16T06:02:24.642Z,22.8
2019-04-16T06:05:04.076Z,22.8
2019-04-16T06:05:56.261Z,22.8
2019-04-16T06:06:43.534Z,22.8
2019-04-16T06:07:39.798Z,22.8
2019-04-16T06:08:24.136Z,22.9
2019-04-16T06:09:21.118Z,22.8
2019-04-16T06:10:07.959Z,22.8
2019-04-16T06:11:01.485Z,22.8
2019-04-16T06:11:44.876Z,22.8
2019-04-16T06:12:43.128Z,22.8
2019-04-16T06:13:25.091Z,22.8
2019-04-16T06:14:26.281Z,22.8
2019-04-16T06:15:04.349Z,22.8
2019-04-16T06:15:59.791Z,22.8
2019-04-16T06:16:44.400Z,22.8
2019-04-16T06:17:39.885Z,22.8
2019-04-16T06:18:25.480Z,22.8
2019-04-16T06:19:18.980Z,22.7
2019-04-16T06:20:04.454Z,22.7
2019-04-16T06:20:59.580Z,22.6
2019-04-16T06:21:44.893Z,22.5
2019-04-16T06:22:37.174Z,22.4
2019-04-16T06:23:24.119Z,22.3
2019-04-16T06:24:15.348Z,22.3
2019-04-16T06:25:16.134Z,22.3
2019-04-16T06:25:55.775Z,22.3
2019-04-16T06:26:50.930Z,22.3
2019-04-16T06:27:35.617Z,22.3
2019-04-16T06:28:25.465Z,22.4
2019-04-16T06:29:15.598Z,22.5
2019-04-16T06:30:09.923Z,22.7
2019-04-16T06:30:55.290Z,22.8
2019-04-16T06:31:47.435Z,22.8
2019-04-16T06:32:35.827Z,22.8
2019-04-16T06:33:26.077Z,22.8
2019-04-16T06:34:16.013Z,22.8
2019-04-16T06:35:05.654Z,22.7
2019-04-16T06:35:55.939Z,22.7
2019-04-16T06:36:46.607Z,22.6
2019-04-16T06:37:36.339Z,22.6
2019-04-16T06:38:25.878Z,22.6
2019-04-16T06:39:16.478Z,22.6
2019-04-16T06:40:08.830Z,22.6
2019-04-16T06:40:56.064Z,22.6
2019-04-16T06:41:58.219Z,22.6
2019-04-16T06:42:39.401Z,22.6
2019-04-16T06:43:33.761Z,22.6
2019-04-16T06:44:17.102Z,22.6
2019-04-16T06:45:12.531Z,22.6
2019-04-16T06:45:56.677Z,22.6
2019-04-16T06:46:47.384Z,22.7
2019-04-16T06:47:36.232Z,22.7
2019-04-16T06:48:27.273Z,22.7
2019-04-16T06:49:24.089Z,22.8
2019-04-16T06:50:07.642Z,22.8
2019-04-16T06:50:57.346Z,22.8
2019-04-16T06:51:51.707Z,22.8
2019-04-16T06:52:37.186Z,22.8
2019-04-16T06:53:35.786Z,22.8
2019-04-16T06:54:19.046Z,22.8
2019-04-16T06:55:11.098Z,22.8
2019-04-16T06:55:57.421Z,22.9
2019-04-16T06:56:50.822Z,22.9
2019-04-16T06:57:40.291Z,22.9
2019-04-16T06:58:58.566Z,22.9
2019-04-16T06:59:22.238Z,22.9
2019-04-16T07:00:14.156Z,22.9
2019-04-16T07:00:57.823Z,22.9
2019-04-16T07:01:49.753Z,22.9
2019-04-16T07:05:08.746Z,22.9
2019-04-16T07:05:54.338Z,22.9
2019-04-16T07:06:47.818Z,22.9
2019-04-16T07:07:51.690Z,22.8
2019-04-16T07:08:44.390Z,22.8
2019-04-16T07:09:13.140Z,22.8
2019-04-16T07:10:04.869Z,22.8
2019-04-16T07:10:53.942Z,22.8
2019-04-16T07:11:58.570Z,22.8
2019-04-16T07:12:41.234Z,22.8
2019-04-16T07:13:24.536Z,22.8
2019-04-16T07:14:22.305Z,22.8
2019-04-16T07:15:04.257Z,22.6
2019-04-16T07:16:00.727Z,22.4
2019-04-16T07:16:45.067Z,22.3
2019-04-16T07:17:44.857Z,22.3
2019-04-16T07:18:28.820Z,22.3
2019-04-16T07:19:22.470Z,22.3
2019-04-16T07:20:14.810Z,22.3
2019-04-16T07:20:54.819Z,22.3
2019-04-16T07:21:50.507Z,22.3
2019-04-16T07:22:34.545Z,22.4
2019-04-16T07:23:32.183Z,22.6
2019-04-16T07:24:16.134Z,22.8
2019-04-16T07:25:16.141Z,22.8
2019-04-16T07:25:58.331Z,22.8
2019-04-16T07:27:00.879Z,22.8
2019-04-16T07:27:45.430Z,22.7
2019-04-16T07:28:34.077Z,22.7
2019-04-16T07:29:18.570Z,22.7
2019-04-16T07:30:23.475Z,22.6
2019-04-16T07:30:57.892Z,22.6
2019-04-16T07:31:47.369Z,22.6
2019-04-16T07:32:36.636Z,22.6
2019-04-16T07:33:26.251Z,22.6
2019-04-16T07:34:15.391Z,22.6
2019-04-16T07:35:06.529Z,22.6
2019-04-16T07:35:56.451Z,22.6
2019-04-16T07:36:45.959Z,22.6
2019-04-16T07:37:39.946Z,22.6
2019-04-16T07:38:25.281Z,22.6
2019-04-16T07:39:41.051Z,22.6
2019-04-16T07:40:13.978Z,22.8
2019-04-16T07:40:56.864Z,22.8
2019-04-16T07:41:50.536Z,22.8
2019-04-16T07:42:52.405Z,22.8
2019-04-16T07:44:13.883Z,22.8
2019-04-16T07:44:50.154Z,22.9
2019-04-16T07:45:39.650Z,22.9
2019-04-16T07:46:48.867Z,22.9
2019-04-16T07:47:25.560Z,22.9
2019-04-16T07:48:14.402Z,22.9
2019-04-16T07:49:03.530Z,22.9
2019-04-16T07:50:06.435Z,22.9
2019-04-16T07:50:40.425Z,23
2019-04-16T07:51:30.093Z,23
2019-04-16T07:52:20.335Z,23
2019-04-16T07:53:16.875Z,23
2019-04-16T07:54:05.207Z,23
2019-04-16T07:54:49.753Z,23
2019-04-16T07:55:40.102Z,23
2019-04-16T07:56:30.423Z,23
2019-04-16T07:57:20.265Z,23
2019-04-16T07:58:11.147Z,23
2019-04-16T07:59:07.105Z,23
2019-04-16T07:59:50.745Z,22.9
2019-04-16T08:00:47.396Z,22.9
2019-04-16T08:01:30.261Z,22.9
2019-04-16T08:02:28.421Z,22.9
2019-04-16T08:03:12.579Z,22.9
2019-04-16T08:04:10.352Z,22.9
2019-04-16T08:04:51.023Z,22.9
2019-04-16T08:05:47.660Z,22.9
2019-04-16T08:06:31.727Z,22.9
2019-04-16T08:07:26.359Z,22.9
2019-04-16T08:08:12.052Z,22.9
2019-04-16T08:09:05.495Z,22.8
2019-04-16T08:09:51.757Z,22.6
2019-04-16T08:10:41.576Z,22.4
2019-04-16T08:11:31.334Z,22.4
2019-04-16T08:12:36.451Z,22.3
2019-04-16T08:13:14.551Z,22.3
2019-04-16T08:14:02.751Z,22.3
2019-04-16T08:14:52.056Z,22.3
2019-04-16T08:15:42.526Z,22.3
2019-04-16T08:16:46.216Z,22.4
2019-04-16T08:17:22.291Z,22.6
2019-04-16T08:18:11.812Z,22.7
2019-04-16T08:19:02.111Z,22.8
2019-04-16T08:20:01.024Z,22.7
2019-04-16T08:20:41.939Z,22.7
2019-04-16T08:21:32.253Z,22.7
2019-04-16T08:22:24.734Z,22.7
2019-04-16T08:23:12.522Z,22.6
2019-04-16T08:24:03.090Z,22.6
2019-04-16T08:25:02.449Z,22.6
2019-04-16T08:25:41.752Z,22.6
2019-04-16T08:26:32.707Z,22.6
2019-04-16T08:27:26.452Z,22.6
2019-04-16T08:28:14.647Z,22.6
2019-04-16T08:29:04.097Z,22.6
2019-04-16T08:29:51.774Z,22.6
2019-04-16T08:30:46.615Z,22.6
2019-04-16T08:31:34.407Z,22.6
2019-04-16T08:32:27.212Z,22.6
2019-04-16T08:33:17.040Z,22.7
2019-04-16T08:34:03.142Z,22.7
2019-04-16T08:34:53.034Z,22.7
2019-04-16T08:35:43.597Z,22.8
2019-04-16T08:36:33.059Z,22.8
2019-04-16T08:37:23.414Z,22.8
2019-04-16T08:38:13.479Z,22.8
2019-04-16T08:39:09.824Z,22.9
2019-04-16T08:39:53.031Z,22.9
2019-04-16T08:40:49.074Z,22.9
2019-04-16T08:41:33.716Z,22.9
2019-04-16T08:42:48.477Z,22.9
2019-04-16T08:43:14.562Z,23
2019-04-16T08:44:14.616Z,22.9
2019-04-16T08:44:54.038Z,23
2019-04-16T08:45:47.351Z,23
2019-04-16T08:46:34.838Z,23
2019-04-16T08:47:24.671Z,23
2019-04-16T08:48:23.809Z,23
2019-04-16T08:49:04.563Z,23
2019-04-16T08:50:01.536Z,23
2019-04-16T08:50:43.833Z,23
2019-04-16T08:51:43.599Z,23
2019-04-16T08:52:24.813Z,23
2019-04-16T08:53:20.330Z,23
2019-04-16T08:54:04.077Z,23
2019-04-16T08:55:01.113Z,23
2019-04-16T08:55:45.060Z,23
2019-04-16T08:56:34.818Z,22.9
2019-04-16T08:57:23.575Z,22.9
2019-04-16T08:58:18.955Z,22.9
2019-04-16T08:59:29.352Z,22.9
2019-04-16T08:59:54.530Z,22.9
2019-04-16T09:00:51.810Z,22.9
2019-04-16T09:01:34.857Z,22.9
2019-04-16T09:02:31.667Z,22.9
2019-04-16T09:03:18.563Z,22.7
2019-04-16T09:04:09.614Z,22.5
2019-04-16T09:04:54.007Z,22.4
2019-04-16T09:05:48.527Z,22.4
2019-04-16T09:06:34.752Z,22.3
2019-04-16T09:07:28.425Z,22.3
2019-04-16T09:08:26.627Z,22.3
2019-04-16T09:09:31.178Z,22.3
2019-04-16T09:10:29.906Z,22.4
2019-04-16T09:10:49.507Z,22.6
2019-04-16T09:11:41.855Z,22.6
2019-04-16T09:12:27.570Z,22.7
2019-04-16T09:13:19.492Z,22.8
2019-04-16T09:14:06.150Z,22.7
2019-04-16T09:15:03.714Z,22.7
2019-04-16T09:16:01.047Z,22.6
2019-04-16T09:16:35.999Z,22.6
2019-04-16T09:17:25.490Z,22.6
2019-04-16T09:18:16.382Z,22.6
2019-04-16T09:19:06.546Z,22.6
2019-04-16T09:19:56.139Z,22.6
2019-04-16T09:20:46.842Z,22.5
2019-04-16T09:21:36.667Z,22.5
2019-04-16T09:22:27.220Z,22.5
2019-04-16T09:23:17.176Z,22.6
2019-04-16T09:24:16.357Z,22.5
2019-04-16T09:24:57.725Z,22.6
2019-04-16T09:25:53.628Z,22.6
2019-04-16T09:26:58.904Z,22.6
2019-04-16T09:27:37.379Z,22.6
2019-04-16T09:28:37.431Z,22.7
2019-04-16T09:29:17.100Z,22.7
2019-04-16T09:29:56.794Z,22.8
2019-04-16T09:30:53.806Z,22.8
2019-04-16T09:31:37.126Z,22.8
2019-04-16T09:32:33.744Z,22.8
2019-04-16T09:33:16.599Z,22.8
2019-04-16T09:34:13.481Z,22.9
2019-04-16T09:35:23.301Z,22.9
2019-04-16T09:35:51.093Z,22.9
2019-04-16T09:36:37.498Z,22.9
2019-04-16T09:37:37.454Z,23
2019-04-16T09:38:34.600Z,23
2019-04-16T09:39:08.728Z,23
2019-04-16T09:39:58.266Z,23
2019-04-16T09:40:51.876Z,23
2019-04-16T09:41:38.378Z,23
2019-04-16T09:42:28.526Z,23
2019-04-16T09:43:25.909Z,23
2019-04-16T09:44:07.790Z,23
2019-04-16T09:44:58.095Z,23
2019-04-16T09:45:48.763Z,23
2019-04-16T09:47:09.040Z,23
2019-04-16T09:47:35.370Z,23
2019-04-16T09:48:18.305Z,23
2019-04-16T09:49:13.457Z,23
2019-04-16T09:49:58.432Z,22.9
2019-04-16T09:50:55.356Z,23
2019-04-16T09:51:39.134Z,22.9
2019-04-16T09:52:31.263Z,22.9
2019-04-16T09:53:40.250Z,22.9
2019-04-16T09:54:16.150Z,22.9
2019-04-16T09:54:58.802Z,22.9
2019-04-16T09:55:55.563Z,22.9
2019-04-16T09:56:39.224Z,22.9
2019-04-16T09:57:37.205Z,22.8
2019-04-16T09:58:23.924Z,22.6
2019-04-16T09:59:17.659Z,22.4
2019-04-16T09:59:59.698Z,22.3
2019-04-16T10:00:52.135Z,22.3
2019-04-16T10:01:39.606Z,22.3
2019-04-16T10:02:29.844Z,22.3
2019-04-16T10:03:20.459Z,22.3
2019-04-16T10:06:07.226Z,22.7
2019-04-16T10:06:53.949Z,22.9
2019-04-16T10:07:47.188Z,23
2019-04-16T10:08:36.938Z,23
2019-04-16T10:09:29.845Z,22.9
2019-04-16T10:10:14.848Z,22.9
2019-04-16T10:11:12.898Z,22.9
2019-04-16T10:11:58.143Z,22.8
2019-04-16T10:12:44.501Z,22.8
2019-04-16T10:13:43.405Z,22.8
2019-04-16T10:14:24.842Z,22.8
2019-04-16T10:15:14.983Z,22.7
2019-04-16T10:16:04.281Z,22.7
2019-04-16T10:16:54.761Z,22.7
2019-04-16T10:17:44.525Z,22.6
2019-04-16T10:18:41.501Z,22.6
2019-04-16T10:19:28.633Z,22.6
2019-04-16T10:20:15.736Z,22.7
2019-04-16T10:21:04.653Z,22.6
2019-04-16T10:22:01.324Z,22.6
2019-04-16T10:22:44.391Z,22.6
2019-04-16T10:23:35.293Z,22.6
2019-04-16T10:24:25.908Z,22.7
2019-04-16T10:25:15.710Z,22.7
2019-04-16T10:26:04.613Z,22.7
2019-04-16T10:27:04.307Z,22.8
2019-04-16T10:27:45.625Z,22.8
2019-04-16T10:28:41.481Z,22.8
2019-04-16T10:29:26.168Z,22.8
2019-04-16T10:30:15.794Z,22.8
2019-04-16T10:31:05.927Z,22.8
2019-04-16T10:31:56.083Z,22.8
2019-04-16T10:32:46.097Z,22.8
2019-04-16T10:33:35.680Z,22.8
2019-04-16T10:34:26.232Z,22.9
2019-04-16T10:35:16.318Z,22.9
2019-04-16T10:36:13.344Z,22.9
2019-04-16T10:36:55.884Z,22.9
2019-04-16T10:37:45.752Z,22.9
2019-04-16T10:38:35.922Z,22.9
2019-04-16T10:39:26.932Z,22.9
2019-04-16T10:40:17.067Z,22.9
2019-04-16T10:41:06.434Z,22.9
2019-04-16T10:41:59.065Z,22.9
2019-04-16T10:42:46.822Z,22.9
2019-04-16T10:43:50.888Z,22.9
2019-04-16T10:44:26.303Z,22.9
2019-04-16T10:45:16.680Z,22.9
2019-04-16T10:46:08.249Z,22.9
2019-04-16T10:46:57.292Z,22.9
2019-04-16T10:47:47.163Z,22.9
2019-04-16T10:48:37.309Z,22.9
2019-04-16T10:49:26.709Z,22.9
2019-04-16T10:50:15.634Z,22.9
2019-04-16T10:51:07.471Z,22.8
2019-04-16T10:51:57.471Z,22.8
2019-04-16T10:52:47.797Z,22.8
2019-04-16T10:53:36.108Z,22.8
2019-04-16T10:54:26.590Z,22.6
2019-04-16T10:55:23.358Z,22.5
2019-04-16T10:56:07.754Z,22.4
2019-04-16T10:57:04.622Z,22.4
2019-04-16T10:57:47.404Z,22.4
2019-04-16T10:58:37.794Z,22.4
2019-04-16T10:59:27.903Z,22.4
2019-04-16T11:00:17.733Z,22.4
2019-04-16T11:01:08.490Z,22.6
2019-04-16T11:01:57.808Z,22.7
2019-04-16T11:02:47.435Z,22.8
2019-04-16T11:03:42.365Z,22.9
2019-04-16T11:04:28.800Z,23
2019-04-16T11:05:25.823Z,23
2019-04-16T11:06:08.551Z,22.9
2019-04-16T11:06:58.242Z,22.9
2019-04-16T11:07:49.173Z,22.9
2019-04-16T11:08:39.407Z,22.8
2019-04-16T11:09:28.425Z,22.8
2019-04-16T11:10:19.453Z,22.8
2019-04-16T11:11:08.936Z,22.8
2019-04-16T11:11:58.297Z,22.7
2019-04-16T11:12:49.564Z,22.7
2019-04-16T11:13:39.110Z,22.7
2019-04-16T11:14:28.898Z,22.6
2019-04-16T11:15:18.437Z,22.6
2019-04-16T11:16:08.789Z,22.7
2019-04-16T11:16:59.333Z,22.6
2019-04-16T11:17:49.476Z,22.7
2019-04-16T11:18:38.335Z,22.7
2019-04-16T11:19:28.291Z,22.7
2019-04-16T11:20:19.300Z,22.7